sensor_id;sensor_type;location;lat;lon;timestamp;P1;durP1;ratioP1;P2;durP2;ratioP2
70477;SDS011;57956;53.362;-1.518;2023-07-31T00:01:28;2.77;;;0.37;;
70477;SDS011;57956;53.362;-1.518;2023-07-31T00:03:53;1.97;;;0.30;;
70477;SDS011;57956;53.362;-1.518;2023-07-31T00:06:18;1.97;;;0.33;;
70477;SDS011;57956;53.362;-1.518;2023-07-31T00:08:43;1.93;;;0.40;;
70477;SDS011;57956;53.362;-1.518;2023-07-31T00:11:08;1.87;;;0.50;;
70477;SDS011;57956;53.362;-1.518;2023-07-31T00:13:34;1.33;;;0.20;;
70477;SDS011;57956;53.362;-1.518;2023-07-31T00:15:59;2.43;;;0.40;;
70477;SDS011;57956;53.362;-1.518;2023-07-31T00:18:24;1.70;;;0.20;;
70477;SDS011;57956;53.362;-1.518;2023-07-31T00:20:49;2.03;;;0.20;;
70477;SDS011;57956;53.362;-1.518;2023-07-31T00:23:15;1.67;;;0.20;;
70477;SDS011;57956;53.362;-1.518;2023-07-31T00:25:40;2.10;;;0.30;;
70477;SDS011;57956;53.362;-1.518;2023-07-31T00:28:05;1.47;;;0.20;;
70477;SDS011;57956;53.362;-1.518;2023-07-31T00:30:31;1.73;;;0.20;;
70477;SDS011;57956;53.362;-1.518;2023-07-31T00:32:56;2.45;;;0.30;;
70477;SDS011;57956;53.362;-1.518;2023-07-31T00:35:22;1.97;;;0.30;;
70477;SDS011;57956;53.362;-1.518;2023-07-31T00:37:47;1.10;;;0.10;;
70477;SDS011;57956;53.362;-1.518;2023-07-31T00:40:12;1.30;;;0.20;;
70477;SDS011;57956;53.362;-1.518;2023-07-31T00:42:38;2.92;;;0.20;;
70477;SDS011;57956;53.362;-1.518;2023-07-31T00:45:04;2.47;;;0.40;;
70477;SDS011;57956;53.362;-1.518;2023-07-31T00:47:29;2.10;;;0.20;;
70477;SDS011;57956;53.362;-1.518;2023-07-31T00:49:54;3.90;;;0.77;;
70477;SDS011;57956;53.362;-1.518;2023-07-31T00:52:20;1.70;;;0.20;;
70477;SDS011;57956;53.362;-1.518;2023-07-31T00:54:45;1.73;;;0.20;;
70477;SDS011;57956;53.362;-1.518;2023-07-31T00:57:10;1.77;;;0.20;;
70477;SDS011;57956;53.362;-1.518;2023-07-31T00:59:36;1.90;;;0.30;;
70477;SDS011;57956;53.362;-1.518;2023-07-31T01:02:01;1.40;;;0.20;;
70477;SDS011;57956;53.362;-1.518;2023-07-31T01:04:26;1.27;;;0.17;;
70477;SDS011;57956;53.362;-1.518;2023-07-31T01:06:54;1.55;;;0.20;;
70477;SDS011;57956;53.362;-1.518;2023-07-31T01:12:00;1.83;;;0.30;;
70477;SDS011;57956;53.362;-1.518;2023-07-31T01:14:26;1.38;;;0.20;;
70477;SDS011;57956;53.362;-1.518;2023-07-31T01:16:51;2.00;;;0.27;;
70477;SDS011;57956;53.362;-1.518;2023-07-31T01:19:18;1.30;;;0.23;;
70477;SDS011;57956;53.362;-1.518;2023-07-31T01:24:28;1.85;;;0.20;;
70477;SDS011;57956;53.362;-1.518;2023-07-31T01:27:01;1.30;;;0.20;;
70477;SDS011;57956;53.362;-1.518;2023-07-31T01:31:53;1.20;;;0.20;;
70477;SDS011;57956;53.362;-1.518;2023-07-31T01:34:20;2.17;;;0.20;;
70477;SDS011;57956;53.362;-1.518;2023-07-31T01:36:46;1.50;;;0.52;;
70477;SDS011;57956;53.362;-1.518;2023-07-31T01:39:11;1.67;;;0.20;;
70477;SDS011;57956;53.362;-1.518;2023-07-31T01:41:37;1.43;;;0.20;;
70477;SDS011;57956;53.362;-1.518;2023-07-31T01:44:02;1.73;;;0.20;;
70477;SDS011;57956;53.362;-1.518;2023-07-31T01:46:27;1.20;;;0.17;;
70477;SDS011;57956;53.362;-1.518;2023-07-31T01:48:52;0.97;;;0.17;;
70477;SDS011;57956;53.362;-1.518;2023-07-31T01:51:18;1.20;;;0.20;;
70477;SDS011;57956;53.362;-1.518;2023-07-31T01:53:46;1.23;;;0.20;;
70477;SDS011;57956;53.362;-1.518;2023-07-31T01:56:11;1.60;;;0.32;;
70477;SDS011;57956;53.362;-1.518;2023-07-31T01:58:36;1.53;;;0.20;;
70477;SDS011;57956;53.362;-1.518;2023-07-31T02:01:01;1.97;;;0.23;;
70477;SDS011;57956;53.362;-1.518;2023-07-31T02:03:27;1.67;;;0.20;;
70477;SDS011;57956;53.362;-1.518;2023-07-31T02:05:53;1.53;;;0.20;;
70477;SDS011;57956;53.362;-1.518;2023-07-31T02:08:19;1.10;;;0.20;;
70477;SDS011;57956;53.362;-1.518;2023-07-31T02:10:44;1.77;;;0.50;;
70477;SDS011;57956;53.362;-1.518;2023-07-31T02:13:09;1.10;;;0.20;;
70477;SDS011;57956;53.362;-1.518;2023-07-31T02:15:34;1.33;;;0.20;;
70477;SDS011;57956;53.362;-1.518;2023-07-31T02:18:00;1.43;;;0.20;;
70477;SDS011;57956;53.362;-1.518;2023-07-31T02:20:25;2.53;;;0.40;;
70477;SDS011;57956;53.362;-1.518;2023-07-31T02:22:53;1.40;;;0.20;;
70477;SDS011;57956;53.362;-1.518;2023-07-31T02:25:19;1.93;;;0.20;;
70477;SDS011;57956;53.362;-1.518;2023-07-31T02:27:44;1.23;;;0.10;;
70477;SDS011;57956;53.362;-1.518;2023-07-31T02:30:09;1.00;;;0.10;;
70477;SDS011;57956;53.362;-1.518;2023-07-31T02:32:35;1.30;;;0.20;;
70477;SDS011;57956;53.362;-1.518;2023-07-31T02:35:00;1.63;;;0.10;;
70477;SDS011;57956;53.362;-1.518;2023-07-31T02:37:28;1.50;;;0.28;;
70477;SDS011;57956;53.362;-1.518;2023-07-31T02:39:54;0.90;;;0.10;;
70477;SDS011;57956;53.362;-1.518;2023-07-31T02:42:19;1.27;;;0.20;;
70477;SDS011;57956;53.362;-1.518;2023-07-31T02:44:44;1.27;;;0.17;;
70477;SDS011;57956;53.362;-1.518;2023-07-31T02:47:11;1.10;;;0.20;;
70477;SDS011;57956;53.362;-1.518;2023-07-31T02:49:36;1.10;;;0.20;;
70477;SDS011;57956;53.362;-1.518;2023-07-31T02:52:01;1.20;;;0.10;;
70477;SDS011;57956;53.362;-1.518;2023-07-31T02:54:27;1.67;;;0.10;;
70477;SDS011;57956;53.362;-1.518;2023-07-31T02:56:52;1.10;;;0.10;;
70477;SDS011;57956;53.362;-1.518;2023-07-31T02:59:17;1.20;;;0.20;;
70477;SDS011;57956;53.362;-1.518;2023-07-31T03:01:43;1.63;;;0.20;;
70477;SDS011;57956;53.362;-1.518;2023-07-31T03:04:08;1.00;;;0.10;;
70477;SDS011;57956;53.362;-1.518;2023-07-31T03:06:34;1.30;;;0.20;;
70477;SDS011;57956;53.362;-1.518;2023-07-31T03:08:59;1.43;;;0.20;;
70477;SDS011;57956;53.362;-1.518;2023-07-31T03:11:27;1.13;;;0.20;;
70477;SDS011;57956;53.362;-1.518;2023-07-31T03:13:52;4.00;;;0.33;;
70477;SDS011;57956;53.362;-1.518;2023-07-31T03:16:17;1.93;;;0.30;;
70477;SDS011;57956;53.362;-1.518;2023-07-31T03:18:43;2.15;;;0.20;;
70477;SDS011;57956;53.362;-1.518;2023-07-31T03:21:08;1.77;;;0.20;;
70477;SDS011;57956;53.362;-1.518;2023-07-31T03:23:33;1.50;;;0.30;;
70477;SDS011;57956;53.362;-1.518;2023-07-31T03:26:02;3.50;;;0.27;;
70477;SDS011;57956;53.362;-1.518;2023-07-31T03:28:28;1.75;;;0.20;;
70477;SDS011;57956;53.362;-1.518;2023-07-31T03:30:54;1.40;;;0.20;;
70477;SDS011;57956;53.362;-1.518;2023-07-31T03:33:19;1.97;;;0.27;;
70477;SDS011;57956;53.362;-1.518;2023-07-31T03:35:44;3.10;;;0.60;;
70477;SDS011;57956;53.362;-1.518;2023-07-31T03:38:10;1.83;;;0.30;;
70477;SDS011;57956;53.362;-1.518;2023-07-31T03:40:35;2.03;;;0.30;;
70477;SDS011;57956;53.362;-1.518;2023-07-31T03:43:00;2.10;;;0.40;;
70477;SDS011;57956;53.362;-1.518;2023-07-31T03:45:25;1.60;;;0.20;;
70477;SDS011;57956;53.362;-1.518;2023-07-31T03:47:50;2.37;;;0.30;;
70477;SDS011;57956;53.362;-1.518;2023-07-31T03:50:16;2.13;;;0.30;;
70477;SDS011;57956;53.362;-1.518;2023-07-31T03:52:41;3.13;;;0.50;;
70477;SDS011;57956;53.362;-1.518;2023-07-31T03:55:06;4.67;;;0.50;;
70477;SDS011;57956;53.362;-1.518;2023-07-31T03:57:32;2.30;;;0.30;;
70477;SDS011;57956;53.362;-1.518;2023-07-31T03:59:57;2.75;;;0.30;;
70477;SDS011;57956;53.362;-1.518;2023-07-31T04:02:23;2.70;;;0.40;;
70477;SDS011;57956;53.362;-1.518;2023-07-31T04:04:48;2.37;;;0.40;;
70477;SDS011;57956;53.362;-1.518;2023-07-31T04:07:13;3.03;;;0.50;;
70477;SDS011;57956;53.362;-1.518;2023-07-31T04:09:38;4.50;;;0.50;;
70477;SDS011;57956;53.362;-1.518;2023-07-31T04:12:04;2.65;;;0.43;;
70477;SDS011;57956;53.362;-1.518;2023-07-31T04:14:29;2.50;;;0.47;;
70477;SDS011;57956;53.362;-1.518;2023-07-31T04:16:54;3.53;;;0.57;;
70477;SDS011;57956;53.362;-1.518;2023-07-31T04:19:19;2.30;;;0.50;;
70477;SDS011;57956;53.362;-1.518;2023-07-31T04:21:45;2.67;;;0.63;;
70477;SDS011;57956;53.362;-1.518;2023-07-31T04:24:10;2.80;;;0.57;;
70477;SDS011;57956;53.362;-1.518;2023-07-31T04:26:35;2.47;;;0.57;;
70477;SDS011;57956;53.362;-1.518;2023-07-31T04:29:00;2.40;;;0.50;;
70477;SDS011;57956;53.362;-1.518;2023-07-31T04:31:26;2.50;;;0.53;;
70477;SDS011;57956;53.362;-1.518;2023-07-31T04:33:51;3.30;;;0.50;;
70477;SDS011;57956;53.362;-1.518;2023-07-31T04:36:16;3.13;;;0.57;;
70477;SDS011;57956;53.362;-1.518;2023-07-31T04:38:41;2.10;;;0.43;;
70477;SDS011;57956;53.362;-1.518;2023-07-31T04:41:07;2.53;;;0.60;;
70477;SDS011;57956;53.362;-1.518;2023-07-31T04:43:32;2.83;;;0.30;;
70477;SDS011;57956;53.362;-1.518;2023-07-31T04:46:00;3.43;;;0.50;;
70477;SDS011;57956;53.362;-1.518;2023-07-31T04:48:25;1.85;;;0.28;;
70477;SDS011;57956;53.362;-1.518;2023-07-31T04:50:50;1.87;;;0.30;;
70477;SDS011;57956;53.362;-1.518;2023-07-31T04:53:15;1.63;;;0.20;;
70477;SDS011;57956;53.362;-1.518;2023-07-31T04:55:40;2.90;;;0.40;;
70477;SDS011;57956;53.362;-1.518;2023-07-31T04:58:06;1.70;;;0.30;;
70477;SDS011;57956;53.362;-1.518;2023-07-31T05:00:31;2.50;;;0.40;;
70477;SDS011;57956;53.362;-1.518;2023-07-31T05:02:56;2.73;;;0.50;;
70477;SDS011;57956;53.362;-1.518;2023-07-31T05:05:22;1.43;;;0.20;;
70477;SDS011;57956;53.362;-1.518;2023-07-31T05:07:47;1.93;;;0.30;;
70477;SDS011;57956;53.362;-1.518;2023-07-31T05:10:12;1.60;;;0.20;;
70477;SDS011;57956;53.362;-1.518;2023-07-31T05:12:37;3.57;;;0.30;;
70477;SDS011;57956;53.362;-1.518;2023-07-31T05:15:03;1.87;;;0.20;;
70477;SDS011;57956;53.362;-1.518;2023-07-31T05:17:31;2.10;;;0.30;;
70477;SDS011;57956;53.362;-1.518;2023-07-31T05:19:56;1.75;;;0.28;;
70477;SDS011;57956;53.362;-1.518;2023-07-31T05:22:21;1.70;;;0.10;;
70477;SDS011;57956;53.362;-1.518;2023-07-31T05:24:46;1.50;;;0.10;;
70477;SDS011;57956;53.362;-1.518;2023-07-31T05:27:12;3.73;;;0.60;;
70477;SDS011;57956;53.362;-1.518;2023-07-31T05:29:40;2.05;;;0.40;;
70477;SDS011;57956;53.362;-1.518;2023-07-31T05:32:05;2.70;;;0.30;;
70477;SDS011;57956;53.362;-1.518;2023-07-31T05:34:31;2.83;;;0.50;;
70477;SDS011;57956;53.362;-1.518;2023-07-31T05:36:56;2.80;;;0.50;;
70477;SDS011;57956;53.362;-1.518;2023-07-31T05:39:21;2.17;;;0.30;;
70477;SDS011;57956;53.362;-1.518;2023-07-31T05:41:46;2.03;;;0.20;;
70477;SDS011;57956;53.362;-1.518;2023-07-31T05:44:12;3.03;;;0.30;;
70477;SDS011;57956;53.362;-1.518;2023-07-31T05:46:37;2.57;;;0.47;;
70477;SDS011;57956;53.362;-1.518;2023-07-31T05:49:02;4.63;;;0.47;;
70477;SDS011;57956;53.362;-1.518;2023-07-31T05:51:27;2.70;;;0.80;;
70477;SDS011;57956;53.362;-1.518;2023-07-31T05:53:53;2.47;;;0.40;;
70477;SDS011;57956;53.362;-1.518;2023-07-31T05:56:18;3.40;;;0.57;;
70477;SDS011;57956;53.362;-1.518;2023-07-31T05:58:43;2.73;;;0.50;;
70477;SDS011;57956;53.362;-1.518;2023-07-31T06:01:08;3.10;;;0.40;;
70477;SDS011;57956;53.362;-1.518;2023-07-31T06:03:34;2.83;;;0.50;;
70477;SDS011;57956;53.362;-1.518;2023-07-31T06:05:59;2.80;;;0.57;;
70477;SDS011;57956;53.362;-1.518;2023-07-31T06:08:24;3.25;;;0.77;;
70477;SDS011;57956;53.362;-1.518;2023-07-31T06:10:50;3.43;;;0.60;;
70477;SDS011;57956;53.362;-1.518;2023-07-31T06:13:15;4.80;;;0.70;;
70477;SDS011;57956;53.362;-1.518;2023-07-31T06:15:40;6.93;;;1.13;;
70477;SDS011;57956;53.362;-1.518;2023-07-31T06:18:05;3.00;;;0.57;;
70477;SDS011;57956;53.362;-1.518;2023-07-31T06:20:33;4.68;;;0.57;;
70477;SDS011;57956;53.362;-1.518;2023-07-31T06:22:58;3.20;;;0.77;;
70477;SDS011;57956;53.362;-1.518;2023-07-31T06:25:23;4.40;;;0.63;;
70477;SDS011;57956;53.362;-1.518;2023-07-31T06:27:48;3.17;;;0.60;;
70477;SDS011;57956;53.362;-1.518;2023-07-31T06:30:14;3.43;;;0.60;;
70477;SDS011;57956;53.362;-1.518;2023-07-31T06:32:39;5.80;;;0.67;;
70477;SDS011;57956;53.362;-1.518;2023-07-31T06:35:05;6.32;;;0.95;;
70477;SDS011;57956;53.362;-1.518;2023-07-31T06:37:31;2.87;;;0.60;;
70477;SDS011;57956;53.362;-1.518;2023-07-31T06:39:56;2.50;;;0.40;;
70477;SDS011;57956;53.362;-1.518;2023-07-31T06:42:21;4.57;;;0.73;;
70477;SDS011;57956;53.362;-1.518;2023-07-31T06:44:47;3.20;;;0.53;;
70477;SDS011;57956;53.362;-1.518;2023-07-31T06:47:12;2.67;;;0.53;;
70477;SDS011;57956;53.362;-1.518;2023-07-31T06:49:37;4.40;;;0.73;;
70477;SDS011;57956;53.362;-1.518;2023-07-31T06:52:03;3.53;;;0.57;;
70477;SDS011;57956;53.362;-1.518;2023-07-31T06:54:28;3.80;;;0.70;;
70477;SDS011;57956;53.362;-1.518;2023-07-31T06:56:53;5.20;;;0.60;;
70477;SDS011;57956;53.362;-1.518;2023-07-31T06:59:18;6.90;;;0.90;;
70477;SDS011;57956;53.362;-1.518;2023-07-31T07:01:44;4.70;;;0.80;;
70477;SDS011;57956;53.362;-1.518;2023-07-31T07:04:09;3.43;;;0.63;;
70477;SDS011;57956;53.362;-1.518;2023-07-31T07:06:34;5.80;;;1.47;;
70477;SDS011;57956;53.362;-1.518;2023-07-31T07:08:59;5.33;;;0.70;;
70477;SDS011;57956;53.362;-1.518;2023-07-31T07:11:25;4.03;;;0.80;;
70477;SDS011;57956;53.362;-1.518;2023-07-31T07:13:50;3.97;;;1.13;;
70477;SDS011;57956;53.362;-1.518;2023-07-31T07:16:16;6.07;;;0.90;;
70477;SDS011;57956;53.362;-1.518;2023-07-31T07:18:41;9.13;;;1.30;;
70477;SDS011;57956;53.362;-1.518;2023-07-31T07:21:06;5.78;;;0.90;;
70477;SDS011;57956;53.362;-1.518;2023-07-31T07:23:31;4.60;;;1.03;;
70477;SDS011;57956;53.362;-1.518;2023-07-31T07:25:57;5.13;;;1.27;;
70477;SDS011;57956;53.362;-1.518;2023-07-31T07:28:22;4.80;;;1.40;;
70477;SDS011;57956;53.362;-1.518;2023-07-31T07:30:54;6.20;;;1.10;;
70477;SDS011;57956;53.362;-1.518;2023-07-31T07:33:19;3.83;;;0.93;;
70477;SDS011;57956;53.362;-1.518;2023-07-31T07:35:45;4.20;;;0.77;;
70477;SDS011;57956;53.362;-1.518;2023-07-31T07:38:10;4.63;;;0.82;;
70477;SDS011;57956;53.362;-1.518;2023-07-31T07:40:41;4.10;;;0.80;;
70477;SDS011;57956;53.362;-1.518;2023-07-31T07:43:07;5.23;;;0.80;;
70477;SDS011;57956;53.362;-1.518;2023-07-31T07:45:33;6.35;;;1.13;;
70477;SDS011;57956;53.362;-1.518;2023-07-31T07:47:58;6.87;;;0.90;;
70477;SDS011;57956;53.362;-1.518;2023-07-31T07:50:24;3.10;;;0.45;;
70477;SDS011;57956;53.362;-1.518;2023-07-31T07:52:49;4.40;;;0.80;;
70477;SDS011;57956;53.362;-1.518;2023-07-31T07:55:14;4.30;;;0.90;;
70477;SDS011;57956;53.362;-1.518;2023-07-31T07:57:40;3.00;;;0.50;;
70477;SDS011;57956;53.362;-1.518;2023-07-31T08:00:08;4.33;;;1.03;;
70477;SDS011;57956;53.362;-1.518;2023-07-31T08:02:35;4.73;;;1.03;;
70477;SDS011;57956;53.362;-1.518;2023-07-31T08:05:00;5.07;;;0.80;;
70477;SDS011;57956;53.362;-1.518;2023-07-31T08:07:25;4.03;;;1.03;;
70477;SDS011;57956;53.362;-1.518;2023-07-31T08:09:51;7.47;;;1.77;;
70477;SDS011;57956;53.362;-1.518;2023-07-31T08:12:16;5.53;;;0.87;;
70477;SDS011;57956;53.362;-1.518;2023-07-31T08:14:41;8.23;;;1.30;;
70477;SDS011;57956;53.362;-1.518;2023-07-31T08:17:06;4.30;;;0.70;;
70477;SDS011;57956;53.362;-1.518;2023-07-31T08:19:32;4.83;;;0.80;;
70477;SDS011;57956;53.362;-1.518;2023-07-31T08:21:57;6.00;;;0.70;;
70477;SDS011;57956;53.362;-1.518;2023-07-31T08:24:22;6.60;;;0.97;;
70477;SDS011;57956;53.362;-1.518;2023-07-31T08:26:48;4.43;;;0.90;;
70477;SDS011;57956;53.362;-1.518;2023-07-31T08:29:13;10.07;;;0.70;;
70477;SDS011;57956;53.362;-1.518;2023-07-31T08:31:38;5.47;;;0.80;;
70477;SDS011;57956;53.362;-1.518;2023-07-31T08:34:03;5.00;;;1.33;;
70477;SDS011;57956;53.362;-1.518;2023-07-31T08:36:29;5.73;;;1.03;;
70477;SDS011;57956;53.362;-1.518;2023-07-31T08:38:54;3.60;;;1.00;;
70477;SDS011;57956;53.362;-1.518;2023-07-31T08:41:19;4.10;;;1.13;;
70477;SDS011;57956;53.362;-1.518;2023-07-31T08:43:49;4.20;;;1.00;;
70477;SDS011;57956;53.362;-1.518;2023-07-31T08:46:14;8.07;;;1.30;;
70477;SDS011;57956;53.362;-1.518;2023-07-31T08:48:41;6.53;;;1.40;;
70477;SDS011;57956;53.362;-1.518;2023-07-31T08:51:07;6.50;;;1.25;;
70477;SDS011;57956;53.362;-1.518;2023-07-31T08:53:32;5.10;;;1.00;;
70477;SDS011;57956;53.362;-1.518;2023-07-31T08:55:57;4.40;;;1.40;;
70477;SDS011;57956;53.362;-1.518;2023-07-31T08:58:23;5.43;;;0.98;;
70477;SDS011;57956;53.362;-1.518;2023-07-31T09:00:48;8.50;;;1.83;;
70477;SDS011;57956;53.362;-1.518;2023-07-31T09:03:16;3.60;;;1.08;;
70477;SDS011;57956;53.362;-1.518;2023-07-31T09:05:42;2.70;;;0.63;;
70477;SDS011;57956;53.362;-1.518;2023-07-31T09:08:08;3.83;;;1.30;;
70477;SDS011;57956;53.362;-1.518;2023-07-31T09:10:34;3.97;;;1.00;;
70477;SDS011;57956;53.362;-1.518;2023-07-31T09:13:00;4.70;;;1.10;;
70477;SDS011;57956;53.362;-1.518;2023-07-31T09:15:25;6.10;;;1.00;;
70477;SDS011;57956;53.362;-1.518;2023-07-31T09:17:58;7.27;;;1.10;;
70477;SDS011;57956;53.362;-1.518;2023-07-31T09:20:23;8.07;;;1.55;;
70477;SDS011;57956;53.362;-1.518;2023-07-31T09:22:49;4.90;;;0.90;;
70477;SDS011;57956;53.362;-1.518;2023-07-31T09:25:18;9.30;;;1.10;;
70477;SDS011;57956;53.362;-1.518;2023-07-31T09:27:51;9.00;;;1.20;;
70477;SDS011;57956;53.362;-1.518;2023-07-31T09:30:16;5.45;;;1.20;;
70477;SDS011;57956;53.362;-1.518;2023-07-31T09:32:42;5.63;;;1.13;;
70477;SDS011;57956;53.362;-1.518;2023-07-31T09:35:21;4.70;;;0.80;;
70477;SDS011;57956;53.362;-1.518;2023-07-31T09:37:53;5.15;;;0.90;;
70477;SDS011;57956;53.362;-1.518;2023-07-31T09:40:29;6.63;;;1.42;;
70477;SDS011;57956;53.362;-1.518;2023-07-31T09:42:58;4.90;;;1.10;;
70477;SDS011;57956;53.362;-1.518;2023-07-31T09:45:24;4.35;;;1.08;;
70477;SDS011;57956;53.362;-1.518;2023-07-31T09:47:49;5.60;;;1.10;;
70477;SDS011;57956;53.362;-1.518;2023-07-31T09:50:14;4.33;;;0.80;;
70477;SDS011;57956;53.362;-1.518;2023-07-31T09:52:40;4.83;;;1.17;;
70477;SDS011;57956;53.362;-1.518;2023-07-31T09:55:06;5.63;;;1.38;;
70477;SDS011;57956;53.362;-1.518;2023-07-31T09:57:31;4.87;;;1.37;;
70477;SDS011;57956;53.362;-1.518;2023-07-31T09:59:56;5.63;;;1.10;;
70477;SDS011;57956;53.362;-1.518;2023-07-31T10:02:22;4.30;;;1.35;;
70477;SDS011;57956;53.362;-1.518;2023-07-31T10:04:51;6.17;;;1.40;;
70477;SDS011;57956;53.362;-1.518;2023-07-31T10:07:17;4.97;;;1.15;;
70477;SDS011;57956;53.362;-1.518;2023-07-31T10:09:42;6.43;;;1.45;;
70477;SDS011;57956;53.362;-1.518;2023-07-31T10:12:10;5.03;;;1.40;;
70477;SDS011;57956;53.362;-1.518;2023-07-31T10:14:37;6.37;;;1.60;;
70477;SDS011;57956;53.362;-1.518;2023-07-31T10:17:03;7.28;;;1.45;;
70477;SDS011;57956;53.362;-1.518;2023-07-31T10:19:30;5.93;;;1.38;;
70477;SDS011;57956;53.362;-1.518;2023-07-31T10:21:55;4.10;;;1.13;;
70477;SDS011;57956;53.362;-1.518;2023-07-31T10:24:22;3.92;;;1.27;;
70477;SDS011;57956;53.362;-1.518;2023-07-31T10:26:48;3.60;;;1.10;;
70477;SDS011;57956;53.362;-1.518;2023-07-31T10:29:14;5.23;;;0.90;;
70477;SDS011;57956;53.362;-1.518;2023-07-31T10:31:40;3.65;;;0.85;;
70477;SDS011;57956;53.362;-1.518;2023-07-31T10:34:06;3.70;;;0.90;;
70477;SDS011;57956;53.362;-1.518;2023-07-31T10:36:31;5.47;;;0.80;;
70477;SDS011;57956;53.362;-1.518;2023-07-31T10:38:59;5.13;;;1.07;;
70477;SDS011;57956;53.362;-1.518;2023-07-31T10:41:30;3.58;;;0.70;;
70477;SDS011;57956;53.362;-1.518;2023-07-31T10:43:59;5.63;;;0.87;;
70477;SDS011;57956;53.362;-1.518;2023-07-31T10:46:24;4.07;;;0.57;;
70477;SDS011;57956;53.362;-1.518;2023-07-31T10:48:57;3.87;;;1.30;;
70477;SDS011;57956;53.362;-1.518;2023-07-31T10:51:22;4.53;;;0.88;;
70477;SDS011;57956;53.362;-1.518;2023-07-31T10:53:47;3.73;;;1.10;;
70477;SDS011;57956;53.362;-1.518;2023-07-31T10:56:13;5.50;;;1.00;;
70477;SDS011;57956;53.362;-1.518;2023-07-31T10:58:43;5.22;;;0.70;;
70477;SDS011;57956;53.362;-1.518;2023-07-31T11:01:09;3.70;;;0.70;;
70477;SDS011;57956;53.362;-1.518;2023-07-31T11:03:41;3.23;;;1.10;;
70477;SDS011;57956;53.362;-1.518;2023-07-31T11:06:07;3.33;;;1.00;;
70477;SDS011;57956;53.362;-1.518;2023-07-31T11:08:33;2.90;;;0.77;;
70477;SDS011;57956;53.362;-1.518;2023-07-31T11:13:28;4.10;;;0.97;;
70477;SDS011;57956;53.362;-1.518;2023-07-31T11:15:53;5.00;;;1.00;;
70477;SDS011;57956;53.362;-1.518;2023-07-31T11:18:18;3.33;;;0.90;;
70477;SDS011;57956;53.362;-1.518;2023-07-31T11:20:44;3.87;;;1.10;;
70477;SDS011;57956;53.362;-1.518;2023-07-31T11:23:09;3.38;;;0.70;;
70477;SDS011;57956;53.362;-1.518;2023-07-31T11:25:35;5.63;;;0.70;;
70477;SDS011;57956;53.362;-1.518;2023-07-31T11:28:05;5.82;;;0.82;;
70477;SDS011;57956;53.362;-1.518;2023-07-31T11:30:30;3.03;;;0.80;;
70477;SDS011;57956;53.362;-1.518;2023-07-31T11:32:56;3.97;;;0.70;;
70477;SDS011;57956;53.362;-1.518;2023-07-31T11:35:21;3.73;;;0.67;;
70477;SDS011;57956;53.362;-1.518;2023-07-31T11:37:47;3.78;;;0.90;;
70477;SDS011;57956;53.362;-1.518;2023-07-31T11:40:13;5.53;;;0.80;;
70477;SDS011;57956;53.362;-1.518;2023-07-31T11:42:39;5.60;;;0.87;;
70477;SDS011;57956;53.362;-1.518;2023-07-31T11:45:04;4.20;;;0.80;;
70477;SDS011;57956;53.362;-1.518;2023-07-31T11:47:31;3.83;;;0.68;;
70477;SDS011;57956;53.362;-1.518;2023-07-31T11:49:59;6.75;;;0.80;;
70477;SDS011;57956;53.362;-1.518;2023-07-31T11:52:24;3.30;;;0.43;;
70477;SDS011;57956;53.362;-1.518;2023-07-31T11:54:50;3.67;;;0.60;;
70477;SDS011;57956;53.362;-1.518;2023-07-31T11:57:18;4.43;;;0.70;;
70477;SDS011;57956;53.362;-1.518;2023-07-31T11:59:44;6.27;;;0.73;;
70477;SDS011;57956;53.362;-1.518;2023-07-31T12:02:10;4.65;;;0.70;;
70477;SDS011;57956;53.362;-1.518;2023-07-31T12:04:35;4.67;;;0.60;;
70477;SDS011;57956;53.362;-1.518;2023-07-31T12:07:00;2.90;;;0.60;;
70477;SDS011;57956;53.362;-1.518;2023-07-31T12:09:26;3.50;;;0.70;;
70477;SDS011;57956;53.362;-1.518;2023-07-31T12:11:51;3.90;;;0.87;;
70477;SDS011;57956;53.362;-1.518;2023-07-31T12:16:46;6.03;;;0.70;;
70477;SDS011;57956;53.362;-1.518;2023-07-31T12:19:11;5.63;;;0.63;;
70477;SDS011;57956;53.362;-1.518;2023-07-31T12:21:37;5.57;;;0.73;;
70477;SDS011;57956;53.362;-1.518;2023-07-31T12:24:02;3.47;;;0.80;;
70477;SDS011;57956;53.362;-1.518;2023-07-31T12:26:33;4.03;;;0.80;;
70477;SDS011;57956;53.362;-1.518;2023-07-31T12:28:58;3.47;;;0.68;;
70477;SDS011;57956;53.362;-1.518;2023-07-31T12:31:25;5.53;;;0.80;;
70477;SDS011;57956;53.362;-1.518;2023-07-31T12:33:52;4.73;;;1.10;;
70477;SDS011;57956;53.362;-1.518;2023-07-31T12:36:21;4.60;;;0.70;;
70477;SDS011;57956;53.362;-1.518;2023-07-31T12:38:46;4.25;;;0.80;;
70477;SDS011;57956;53.362;-1.518;2023-07-31T12:41:15;6.67;;;1.13;;
70477;SDS011;57956;53.362;-1.518;2023-07-31T12:43:41;4.60;;;1.70;;
70477;SDS011;57956;53.362;-1.518;2023-07-31T12:46:06;4.17;;;0.87;;
70477;SDS011;57956;53.362;-1.518;2023-07-31T12:48:35;2.72;;;0.68;;
70477;SDS011;57956;53.362;-1.518;2023-07-31T12:51:01;4.50;;;0.93;;
70477;SDS011;57956;53.362;-1.518;2023-07-31T12:53:27;4.55;;;0.80;;
70477;SDS011;57956;53.362;-1.518;2023-07-31T12:55:52;2.33;;;0.50;;
70477;SDS011;57956;53.362;-1.518;2023-07-31T12:58:17;5.30;;;0.77;;
70477;SDS011;57956;53.362;-1.518;2023-07-31T13:00:42;4.43;;;0.70;;
70477;SDS011;57956;53.362;-1.518;2023-07-31T13:03:08;5.20;;;0.67;;
70477;SDS011;57956;53.362;-1.518;2023-07-31T13:05:36;6.50;;;0.80;;
70477;SDS011;57956;53.362;-1.518;2023-07-31T13:08:01;8.90;;;1.13;;
70477;SDS011;57956;53.362;-1.518;2023-07-31T13:10:26;4.10;;;0.60;;
70477;SDS011;57956;53.362;-1.518;2023-07-31T13:12:52;3.92;;;0.63;;
70477;SDS011;57956;53.362;-1.518;2023-07-31T13:15:17;4.63;;;0.97;;
70477;SDS011;57956;53.362;-1.518;2023-07-31T13:17:43;5.00;;;0.77;;
70477;SDS011;57956;53.362;-1.518;2023-07-31T13:20:08;5.83;;;0.90;;
70477;SDS011;57956;53.362;-1.518;2023-07-31T13:22:34;3.08;;;0.85;;
70477;SDS011;57956;53.362;-1.518;2023-07-31T13:24:59;3.03;;;0.60;;
70477;SDS011;57956;53.362;-1.518;2023-07-31T13:27:24;3.70;;;0.73;;
70477;SDS011;57956;53.362;-1.518;2023-07-31T13:29:52;4.80;;;0.80;;
70477;SDS011;57956;53.362;-1.518;2023-07-31T13:32:20;5.10;;;0.68;;
70477;SDS011;57956;53.362;-1.518;2023-07-31T13:34:46;6.70;;;0.80;;
70477;SDS011;57956;53.362;-1.518;2023-07-31T13:37:12;6.75;;;0.80;;
70477;SDS011;57956;53.362;-1.518;2023-07-31T13:39:37;4.47;;;1.30;;
70477;SDS011;57956;53.362;-1.518;2023-07-31T13:42:03;4.77;;;0.63;;
70477;SDS011;57956;53.362;-1.518;2023-07-31T13:44:28;8.32;;;1.00;;
70477;SDS011;57956;53.362;-1.518;2023-07-31T13:46:53;4.20;;;0.90;;
70477;SDS011;57956;53.362;-1.518;2023-07-31T13:49:18;7.87;;;0.77;;
70477;SDS011;57956;53.362;-1.518;2023-07-31T13:51:44;3.87;;;0.90;;
70477;SDS011;57956;53.362;-1.518;2023-07-31T13:54:09;5.67;;;0.63;;
70477;SDS011;57956;53.362;-1.518;2023-07-31T13:56:36;5.43;;;0.82;;
70477;SDS011;57956;53.362;-1.518;2023-07-31T13:59:01;3.83;;;0.53;;
70477;SDS011;57956;53.362;-1.518;2023-07-31T14:01:27;3.50;;;0.90;;
70477;SDS011;57956;53.362;-1.518;2023-07-31T14:03:52;4.10;;;0.53;;
70477;SDS011;57956;53.362;-1.518;2023-07-31T14:06:17;5.68;;;0.55;;
70477;SDS011;57956;53.362;-1.518;2023-07-31T14:08:43;6.07;;;1.07;;
70477;SDS011;57956;53.362;-1.518;2023-07-31T14:11:11;5.40;;;0.70;;
70477;SDS011;57956;53.362;-1.518;2023-07-31T14:13:36;5.22;;;1.02;;
70477;SDS011;57956;53.362;-1.518;2023-07-31T14:16:04;3.67;;;0.70;;
70477;SDS011;57956;53.362;-1.518;2023-07-31T14:18:29;3.95;;;0.68;;
70477;SDS011;57956;53.362;-1.518;2023-07-31T14:20:55;4.33;;;0.83;;
70477;SDS011;57956;53.362;-1.518;2023-07-31T14:23:20;4.87;;;0.93;;
70477;SDS011;57956;53.362;-1.518;2023-07-31T14:25:45;4.80;;;0.50;;
70477;SDS011;57956;53.362;-1.518;2023-07-31T14:28:11;3.87;;;0.60;;
70477;SDS011;57956;53.362;-1.518;2023-07-31T14:30:36;3.10;;;0.60;;
70477;SDS011;57956;53.362;-1.518;2023-07-31T14:33:01;3.93;;;0.83;;
70477;SDS011;57956;53.362;-1.518;2023-07-31T14:35:27;4.47;;;1.23;;
70477;SDS011;57956;53.362;-1.518;2023-07-31T14:37:52;7.60;;;0.50;;